createdAt,value
2018-09-25T00:03:56.099Z,7.60
2018-09-25T00:08:04.380Z,7.60
2018-09-25T00:12:12.571Z,7.50
2018-09-25T00:16:20.711Z,7.50
2018-09-25T00:20:28.903Z,7.50
2018-09-25T00:24:37.189Z,7.50
2018-09-25T00:28:45.506Z,7.40
2018-09-25T00:32:53.675Z,7.40
2018-09-25T00:37:01.885Z,7.40
2018-09-25T00:41:10.314Z,7.30
2018-09-25T00:45:18.616Z,7.30
2018-09-25T00:49:27.003Z,7.30
2018-09-25T00:53:35.190Z,7.20
2018-09-25T00:57:43.679Z,7.20
2018-09-25T01:01:51.814Z,7.20
2018-09-25T01:06:00.059Z,7.20
2018-09-25T01:10:08.513Z,7.10
2018-09-25T01:14:16.760Z,7.10
2018-09-25T01:18:25.138Z,7.20
2018-09-25T01:22:33.527Z,7.10
2018-09-25T01:26:41.756Z,7.00
2018-09-25T01:30:50.118Z,7.00
2018-09-25T01:34:58.339Z,6.90
2018-09-25T01:39:06.713Z,6.90
2018-09-25T01:43:14.873Z,6.80
2018-09-25T01:47:23.064Z,6.80
2018-09-25T01:51:31.331Z,6.70
2018-09-25T01:55:39.615Z,6.70
2018-09-25T01:59:47.930Z,6.70
2018-09-25T02:03:56.199Z,6.60
2018-09-25T02:08:04.490Z,6.60
2018-09-25T02:12:12.848Z,6.50
2018-09-25T02:16:21.298Z,6.50
2018-09-25T02:20:29.620Z,6.40
2018-09-25T02:24:38.061Z,6.30
2018-09-25T02:28:46.390Z,6.30
2018-09-25T02:32:54.616Z,6.20
2018-09-25T02:37:02.834Z,6.20
2018-09-25T02:41:11.255Z,6.10
2018-09-25T02:45:19.426Z,6.10
2018-09-25T02:49:27.652Z,6.20
2018-09-25T02:53:35.970Z,6.20
2018-09-25T02:57:44.283Z,6.10
2018-09-25T03:01:52.508Z,6.00
2018-09-25T03:06:00.675Z,5.90
2018-09-25T03:10:08.998Z,5.90
2018-09-25T03:14:17.192Z,5.90
2018-09-25T03:18:25.415Z,5.90
2018-09-25T03:22:33.733Z,5.80
2018-09-25T03:26:41.877Z,5.80
2018-09-25T03:30:50.044Z,5.80
2018-09-25T03:34:58.242Z,5.70
2018-09-25T03:39:06.682Z,5.60
2018-09-25T03:43:14.880Z,5.60
2018-09-25T03:47:23.151Z,5.60
2018-09-25T03:51:31.239Z,5.60
2018-09-25T03:55:39.628Z,5.50
2018-09-25T03:59:47.774Z,5.50
2018-09-25T04:03:56.078Z,5.30
2018-09-25T04:08:04.224Z,5.40
2018-09-25T04:12:12.571Z,5.40
2018-09-25T04:16:20.890Z,5.30
2018-09-25T04:20:29.117Z,5.20
2018-09-25T04:24:37.333Z,5.10
2018-09-25T04:28:45.435Z,5.10
2018-09-25T04:32:53.783Z,5.10
2018-09-25T04:37:03.918Z,5.10
2018-09-25T04:41:14.108Z,5.10
2018-09-25T04:45:22.390Z,5.10
2018-09-25T04:49:30.643Z,5.00
2018-09-25T04:53:38.963Z,5.10
2018-09-25T04:57:47.286Z,5.10
2018-09-25T05:01:55.677Z,5.00
2018-09-25T05:06:04.003Z,5.20
2018-09-25T05:10:12.378Z,5.40
2018-09-25T05:14:20.561Z,5.30
2018-09-25T05:18:28.981Z,5.50
2018-09-25T05:22:37.189Z,5.40
2018-09-25T05:26:45.469Z,5.20
2018-09-25T05:30:53.781Z,5.20
2018-09-25T05:35:02.317Z,5.20
2018-09-25T05:39:13.133Z,5.10
2018-09-25T05:43:21.410Z,5.00
2018-09-25T05:47:29.577Z,5.00
2018-09-25T05:51:37.724Z,5.00
2018-09-25T05:55:45.871Z,5.30
2018-09-25T05:59:53.945Z,5.60
2018-09-25T06:04:02.321Z,5.80
2018-09-25T06:08:10.640Z,6.10
2018-09-25T06:12:18.892Z,6.30
2018-09-25T06:16:27.220Z,6.80
2018-09-25T06:20:35.341Z,7.20
2018-09-25T06:24:43.603Z,7.60
2018-09-25T06:28:51.856Z,7.80
2018-09-25T06:32:59.994Z,8.40
2018-09-25T06:37:08.348Z,8.80
2018-09-25T06:41:16.471Z,8.90
2018-09-25T06:45:24.567Z,9.10
2018-09-25T06:49:32.822Z,9.90
2018-09-25T06:53:41.258Z,10.00
2018-09-25T06:57:49.687Z,10.20
2018-09-25T07:01:58.028Z,10.80
2018-09-25T07:06:06.321Z,10.70
2018-09-25T07:10:14.740Z,10.90
2018-09-25T07:14:22.859Z,10.90
2018-09-25T07:18:31.207Z,11.90
2018-09-25T07:22:39.565Z,12.30
2018-09-25T07:26:47.726Z,12.70
2018-09-25T07:30:55.949Z,12.10
2018-09-25T07:35:04.156Z,12.30
2018-09-25T07:39:14.056Z,12.50
2018-09-25T07:43:22.364Z,12.90
2018-09-25T07:47:30.633Z,12.60
2018-09-25T07:51:38.969Z,13.20
2018-09-25T07:55:47.245Z,14.00
2018-09-25T07:59:55.566Z,14.80
2018-09-25T08:04:03.832Z,15.70
2018-09-25T08:08:12.019Z,15.30
2018-09-25T08:12:20.270Z,15.20
2018-09-25T08:16:28.664Z,14.90
2018-09-25T08:20:36.889Z,14.40
2018-09-25T08:24:45.077Z,14.50
2018-09-25T08:28:53.291Z,16.10
2018-09-25T08:33:01.475Z,16.60
2018-09-25T08:37:09.730Z,17.40
2018-09-25T08:41:17.982Z,17.20
2018-09-25T08:45:26.344Z,16.50
2018-09-25T08:49:34.636Z,17.70
2018-09-25T08:53:42.939Z,18.10
2018-09-25T08:57:51.099Z,16.50
2018-09-25T09:01:59.280Z,16.90
2018-09-25T09:06:07.534Z,16.90
2018-09-25T09:10:15.651Z,17.00
2018-09-25T09:14:23.889Z,17.70
2018-09-25T09:18:32.032Z,18.00
2018-09-25T09:22:40.223Z,18.30
2018-09-25T09:26:48.493Z,19.00
2018-09-25T09:30:56.829Z,19.00
2018-09-25T09:35:04.961Z,19.30
2018-09-25T09:39:13.897Z,18.70
2018-09-25T09:43:22.109Z,19.00
2018-09-25T09:47:30.283Z,18.70
2018-09-25T09:51:38.568Z,17.70
2018-09-25T09:55:46.698Z,17.70
2018-09-25T09:59:54.896Z,17.20
2018-09-25T10:04:02.986Z,17.30
2018-09-25T10:08:11.176Z,16.90
2018-09-25T10:12:19.525Z,16.70
2018-09-25T10:16:27.676Z,17.50
2018-09-25T10:20:35.971Z,17.70
2018-09-25T10:24:44.143Z,17.50
2018-09-25T10:28:52.517Z,18.30
2018-09-25T10:33:00.734Z,18.70
2018-09-25T10:37:08.909Z,18.80
2018-09-25T10:41:17.059Z,19.00
2018-09-25T10:45:25.347Z,19.70
2018-09-25T10:49:33.711Z,20.30
2018-09-25T10:53:42.002Z,19.60
2018-09-25T10:57:50.261Z,19.10
2018-09-25T11:01:58.334Z,18.90
2018-09-25T11:06:06.603Z,19.80
2018-09-25T11:10:15.115Z,20.60
2018-09-25T11:14:23.367Z,20.30
2018-09-25T11:18:31.641Z,20.90
2018-09-25T11:22:39.881Z,20.40
2018-09-25T11:26:48.079Z,20.20
2018-09-25T11:30:56.277Z,19.10
2018-09-25T11:35:04.422Z,18.50
2018-09-25T11:39:13.035Z,17.40
2018-09-25T11:43:21.227Z,17.00
2018-09-25T11:47:29.558Z,16.40
2018-09-25T11:51:37.782Z,16.60
2018-09-25T11:55:46.034Z,16.30
2018-09-25T11:59:54.215Z,15.60
2018-09-25T12:04:02.657Z,16.50
2018-09-25T12:08:11.348Z,17.10
2018-09-25T12:12:19.568Z,17.50
2018-09-25T12:16:27.692Z,18.30
2018-09-25T12:20:35.962Z,18.10
2018-09-25T12:24:44.141Z,18.40
2018-09-25T12:28:52.331Z,19.10
2018-09-25T12:33:00.651Z,19.80
2018-09-25T12:37:08.765Z,19.50
2018-09-25T12:41:17.015Z,18.90
2018-09-25T12:45:25.202Z,18.80
2018-09-25T12:49:33.490Z,19.50
2018-09-25T12:53:41.623Z,20.10
2018-09-25T12:57:50.007Z,20.30
2018-09-25T13:01:58.158Z,18.50
2018-09-25T13:06:06.334Z,17.70
2018-09-25T13:10:14.525Z,17.80
2018-09-25T13:14:22.711Z,16.70
2018-09-25T13:18:30.903Z,17.00
2018-09-25T13:22:39.055Z,17.10
2018-09-25T13:26:47.275Z,17.10
2018-09-25T13:30:55.454Z,17.10
2018-09-25T13:35:03.738Z,16.40
2018-09-25T13:39:13.442Z,16.60
2018-09-25T13:43:21.627Z,16.70
2018-09-25T13:47:29.863Z,16.50
2018-09-25T13:51:38.079Z,16.30
2018-09-25T13:55:46.398Z,16.20
2018-09-25T13:59:54.877Z,16.00
2018-09-25T14:04:03.247Z,16.10
2018-09-25T14:08:11.673Z,15.90
2018-09-25T14:12:19.979Z,15.70
2018-09-25T14:16:28.369Z,15.60
2018-09-25T14:20:36.698Z,15.40
2018-09-25T14:24:45.200Z,15.50
2018-09-25T14:28:53.447Z,15.70
2018-09-25T14:33:01.790Z,15.90
2018-09-25T14:37:09.950Z,16.10
2018-09-25T14:41:18.203Z,16.20
2018-09-25T14:45:26.528Z,16.70
2018-09-25T14:49:34.920Z,16.50
2018-09-25T14:53:43.170Z,16.30
2018-09-25T14:57:51.359Z,16.30
2018-09-25T15:01:59.525Z,16.00
2018-09-25T15:06:07.854Z,15.90
2018-09-25T15:10:16.255Z,15.60
2018-09-25T15:14:24.657Z,15.60
2018-09-25T15:18:32.819Z,15.50
2018-09-25T15:22:41.032Z,15.30
2018-09-25T15:26:49.487Z,15.30
2018-09-25T15:30:57.888Z,15.30
2018-09-25T15:35:06.361Z,15.00
2018-09-25T15:39:14.738Z,14.90
2018-09-25T15:43:22.880Z,14.90
2018-09-25T15:47:31.085Z,14.80
2018-09-25T15:51:39.546Z,14.70
2018-09-25T15:55:47.848Z,14.60
2018-09-25T15:59:56.068Z,14.50
2018-09-25T16:04:04.392Z,14.40
2018-09-25T16:08:12.688Z,14.30
2018-09-25T16:12:21.058Z,14.30
2018-09-25T16:16:29.557Z,14.20
2018-09-25T16:20:38.079Z,14.20
2018-09-25T16:24:46.482Z,14.20
2018-09-25T16:28:54.710Z,14.20
2018-09-25T16:33:02.836Z,14.30
2018-09-25T16:37:11.455Z,14.20
2018-09-25T16:41:19.816Z,14.20
2018-09-25T16:45:28.115Z,14.20
2018-09-25T16:49:36.324Z,14.20
2018-09-25T16:53:44.707Z,14.10
2018-09-25T16:57:52.881Z,14.00
2018-09-25T17:02:01.004Z,14.00
2018-09-25T17:06:09.123Z,14.00
2018-09-25T17:10:17.518Z,14.10
2018-09-25T17:14:25.703Z,14.00
2018-09-25T17:18:33.952Z,14.00
2018-09-25T17:22:42.321Z,13.80
2018-09-25T17:26:50.443Z,13.70
2018-09-25T17:30:58.908Z,13.70
2018-09-25T17:35:07.069Z,13.40
2018-09-25T17:39:17.459Z,13.20
2018-09-25T17:43:25.573Z,13.10
2018-09-25T17:47:33.932Z,12.90
2018-09-25T17:51:42.190Z,12.70
2018-09-25T17:55:50.383Z,12.50
2018-09-25T17:59:58.748Z,12.40
2018-09-25T18:04:06.917Z,12.30
2018-09-25T18:08:15.181Z,12.20
2018-09-25T18:12:23.326Z,12.00
2018-09-25T18:16:32.009Z,11.80
2018-09-25T18:20:40.301Z,11.80
2018-09-25T18:24:50.323Z,11.60
2018-09-25T18:28:59.172Z,11.50
2018-09-25T18:33:07.503Z,11.40
2018-09-25T18:37:15.874Z,11.20
2018-09-25T18:41:24.079Z,11.20
2018-09-25T18:45:32.468Z,11.10
2018-09-25T18:49:40.829Z,11.00
2018-09-25T18:53:50.496Z,10.90
2018-09-25T18:58:00.144Z,10.80
2018-09-25T19:02:09.099Z,10.60
2018-09-25T19:06:20.727Z,10.60
2018-09-25T19:10:32.197Z,10.40
2018-09-25T19:14:40.527Z,10.30
2018-09-25T19:18:48.952Z,10.30
2018-09-25T19:22:57.400Z,10.10
2018-09-25T19:27:08.357Z,10.10
2018-09-25T19:31:17.233Z,9.90
2018-09-25T19:35:25.735Z,9.90
2018-09-25T19:39:34.108Z,9.90
2018-09-25T19:43:43.335Z,9.70
2018-09-25T19:47:51.580Z,9.60
2018-09-25T19:52:00.421Z,9.60
2018-09-25T19:56:08.517Z,9.60
2018-09-25T20:00:16.848Z,9.50
2018-09-25T20:04:25.203Z,9.50
2018-09-25T20:08:33.547Z,9.40
2018-09-25T20:12:41.836Z,9.40
2018-09-25T20:16:50.233Z,9.30
2018-09-25T20:20:58.676Z,9.30
2018-09-25T20:25:07.177Z,9.20
2018-09-25T20:29:15.585Z,9.20
2018-09-25T20:33:23.846Z,9.10
2018-09-25T20:37:32.124Z,9.10
2018-09-25T20:41:40.330Z,9.10
2018-09-25T20:45:48.513Z,8.90
2018-09-25T20:49:56.831Z,8.90
2018-09-25T20:54:09.392Z,8.80
2018-09-25T20:58:17.579Z,8.80
2018-09-25T21:02:25.853Z,8.70
2018-09-25T21:06:34.275Z,8.70
2018-09-25T21:10:42.606Z,8.70
2018-09-25T21:14:50.668Z,8.60
2018-09-25T21:18:58.935Z,8.60
2018-09-25T21:23:07.189Z,8.60
2018-09-25T21:27:15.469Z,8.50
2018-09-25T21:31:23.769Z,8.50
2018-09-25T21:35:31.990Z,8.40
2018-09-25T21:39:40.354Z,8.40
2018-09-25T21:43:49.304Z,8.40
2018-09-25T21:47:57.544Z,8.40
2018-09-25T21:52:05.755Z,8.30
2018-09-25T21:56:14.123Z,8.30
2018-09-25T22:00:23.354Z,8.40
2018-09-25T22:04:31.792Z,8.30
2018-09-25T22:08:39.897Z,8.20
2018-09-25T22:12:48.093Z,8.20
2018-09-25T22:16:56.462Z,8.10
2018-09-25T22:21:04.705Z,8.00
2018-09-25T22:25:13.642Z,7.90
2018-09-25T22:29:21.855Z,7.90
2018-09-25T22:33:30.211Z,7.80
2018-09-25T22:37:38.348Z,7.90
2018-09-25T22:41:46.661Z,7.90
2018-09-25T22:45:54.859Z,7.80
2018-09-25T22:50:02.972Z,7.80
2018-09-25T22:54:11.332Z,7.70
2018-09-25T22:58:19.698Z,7.70
2018-09-25T23:02:27.900Z,7.60
2018-09-25T23:06:36.236Z,7.60
2018-09-25T23:10:44.451Z,7.60
2018-09-25T23:14:52.772Z,7.60
2018-09-25T23:19:01.121Z,7.70
2018-09-25T23:23:09.253Z,7.60
2018-09-25T23:27:17.681Z,7.50
2018-09-25T23:31:25.963Z,7.50
2018-09-25T23:35:34.431Z,7.40
2018-09-25T23:39:49.290Z,7.30
2018-09-25T23:44:00.377Z,7.30
2018-09-25T23:48:09.483Z,7.30
2018-09-25T23:52:23.242Z,7.40
2018-09-25T23:56:34.246Z,7.50
